createdAt,value
2018-03-24T00:00:15.421Z,0.00
2018-03-24T00:01:15.434Z,0.00
2018-03-24T00:02:15.454Z,0.00
2018-03-24T00:03:15.474Z,0.00
2018-03-24T00:04:15.497Z,0.00
2018-03-24T00:05:15.518Z,0.00
2018-03-24T00:06:15.539Z,0.00
2018-03-24T00:07:15.559Z,0.00
2018-03-24T00:08:15.621Z,0.00
2018-03-24T00:09:15.598Z,0.00
2018-03-24T00:10:15.617Z,0.00
2018-03-24T00:11:15.659Z,0.00
2018-03-24T00:12:15.662Z,0.00
2018-03-24T00:13:15.676Z,0.00
2018-03-24T00:14:15.699Z,0.00
2018-03-24T00:15:15.717Z,0.00
2018-03-24T00:16:15.742Z,0.00
2018-03-24T00:17:15.758Z,0.00
2018-03-24T00:18:15.778Z,0.00
2018-03-24T00:19:15.797Z,0.00
2018-03-24T00:20:15.818Z,0.00
2018-03-24T00:21:15.841Z,0.00
2018-03-24T00:22:15.857Z,0.00
2018-03-24T00:23:15.877Z,0.00
2018-03-24T00:24:15.897Z,0.00
2018-03-24T00:25:15.920Z,0.00
2018-03-24T00:26:15.938Z,0.00
2018-03-24T00:27:15.960Z,0.00
2018-03-24T00:28:15.979Z,0.00
2018-03-24T00:29:15.998Z,0.00
2018-03-24T00:30:16.022Z,0.00
2018-03-24T00:31:16.039Z,0.00
2018-03-24T00:32:16.067Z,0.00
2018-03-24T00:33:16.079Z,0.00
2018-03-24T00:34:16.106Z,0.00
2018-03-24T00:35:16.121Z,0.00
2018-03-24T00:36:16.137Z,0.00
2018-03-24T00:37:16.160Z,0.00
2018-03-24T00:38:16.178Z,0.00
2018-03-24T00:39:16.206Z,0.00
2018-03-24T00:40:16.219Z,0.00
2018-03-24T00:41:16.237Z,0.00
2018-03-24T00:42:16.262Z,0.00
2018-03-24T00:43:16.281Z,0.00
2018-03-24T00:44:16.300Z,0.00
2018-03-24T00:45:16.325Z,0.00
2018-03-24T00:46:16.350Z,0.00
2018-03-24T00:47:16.364Z,0.00
2018-03-24T00:48:16.392Z,0.00
2018-03-24T00:49:16.401Z,0.00
2018-03-24T00:50:16.423Z,0.00
2018-03-24T00:51:16.441Z,0.00
2018-03-24T00:52:16.459Z,0.00
2018-03-24T00:53:16.479Z,0.00
2018-03-24T00:54:16.495Z,0.00
2018-03-24T00:55:16.517Z,0.00
2018-03-24T00:56:16.536Z,0.00
2018-03-24T00:57:16.569Z,0.00
2018-03-24T00:58:16.575Z,0.00
2018-03-24T00:59:16.594Z,0.00
2018-03-24T01:00:16.620Z,0.00
2018-03-24T01:01:16.637Z,0.00
2018-03-24T01:02:16.660Z,0.00
2018-03-24T01:03:16.679Z,0.00
2018-03-24T01:04:16.704Z,0.00
2018-03-24T01:05:16.723Z,0.00
2018-03-24T01:06:16.744Z,0.00
2018-03-24T01:07:16.759Z,0.00
2018-03-24T01:08:16.784Z,0.00
2018-03-24T01:09:16.803Z,0.00
2018-03-24T01:10:16.823Z,0.00
2018-03-24T01:11:16.846Z,0.00
2018-03-24T01:12:16.867Z,0.00
2018-03-24T01:13:16.891Z,0.00
2018-03-24T01:14:16.900Z,0.00
2018-03-24T01:15:16.920Z,0.00
2018-03-24T01:16:16.939Z,0.00
2018-03-24T01:17:16.959Z,0.00
2018-03-24T01:18:16.979Z,0.00
2018-03-24T01:19:17.000Z,0.00
2018-03-24T01:20:17.019Z,0.00
2018-03-24T01:21:17.038Z,0.00
2018-03-24T01:22:17.059Z,0.00
2018-03-24T01:23:17.078Z,0.00
2018-03-24T01:24:17.100Z,0.00
2018-03-24T01:25:17.119Z,0.00
2018-03-24T01:26:17.145Z,0.00
2018-03-24T01:27:17.213Z,0.00
2018-03-24T01:28:17.182Z,0.00
2018-03-24T01:29:17.200Z,0.00
2018-03-24T01:30:17.219Z,0.00
2018-03-24T01:31:17.247Z,0.00
2018-03-24T01:32:17.263Z,0.00
2018-03-24T01:33:17.298Z,0.00
2018-03-24T01:34:17.303Z,0.00
2018-03-24T01:35:17.319Z,0.00
2018-03-24T01:36:17.346Z,0.00
2018-03-24T01:37:17.365Z,0.00
2018-03-24T01:38:17.384Z,0.00
2018-03-24T01:39:17.407Z,0.00
2018-03-24T01:40:17.427Z,0.00
2018-03-24T01:41:17.444Z,0.00
2018-03-24T01:42:17.466Z,0.00
2018-03-24T01:43:17.482Z,0.00
2018-03-24T01:44:17.507Z,0.00
2018-03-24T01:45:17.528Z,0.00
2018-03-24T01:46:17.547Z,0.00
2018-03-24T01:47:17.573Z,0.00
2018-03-24T01:48:17.585Z,0.00
2018-03-24T01:49:17.607Z,0.00
2018-03-24T01:50:17.627Z,0.00
2018-03-24T01:51:17.644Z,0.00
2018-03-24T01:52:17.667Z,0.00
2018-03-24T01:53:17.696Z,0.00
2018-03-24T01:54:17.708Z,0.00
2018-03-24T01:55:17.730Z,0.00
2018-03-24T01:56:17.748Z,0.00
2018-03-24T01:57:17.768Z,0.00
2018-03-24T01:58:17.787Z,0.00
2018-03-24T01:59:17.815Z,0.00
2018-03-24T02:00:17.833Z,0.00
2018-03-24T02:01:17.851Z,0.00
2018-03-24T02:02:17.869Z,0.00
2018-03-24T02:03:17.891Z,0.00
2018-03-24T02:04:17.914Z,0.00
2018-03-24T02:05:17.936Z,0.00
2018-03-24T02:06:17.954Z,0.00
2018-03-24T02:07:17.971Z,0.00
2018-03-24T02:08:17.995Z,0.00
2018-03-24T02:09:18.017Z,0.00
2018-03-24T02:10:18.040Z,0.00
2018-03-24T02:11:18.051Z,0.00
2018-03-24T02:12:18.072Z,0.00
2018-03-24T02:13:18.092Z,0.00
2018-03-24T02:14:18.110Z,0.00
2018-03-24T02:15:18.140Z,0.00
2018-03-24T02:16:18.155Z,0.00
2018-03-24T02:17:18.179Z,0.00
2018-03-24T02:18:18.199Z,0.00
2018-03-24T02:19:18.215Z,0.00
2018-03-24T02:20:18.239Z,0.00
2018-03-24T02:21:18.259Z,0.00
2018-03-24T02:22:18.279Z,0.00
2018-03-24T02:23:18.299Z,0.00
2018-03-24T02:24:18.314Z,0.00
2018-03-24T02:25:18.335Z,0.00
2018-03-24T02:26:18.356Z,0.00
2018-03-24T02:27:18.375Z,0.00
2018-03-24T02:28:18.397Z,0.00
2018-03-24T02:29:18.415Z,0.00
2018-03-24T02:30:18.440Z,0.00
2018-03-24T02:31:18.457Z,0.00
2018-03-24T02:32:18.477Z,0.00
2018-03-24T02:33:18.501Z,0.00
2018-03-24T02:34:18.528Z,0.00
2018-03-24T02:35:18.539Z,0.00
2018-03-24T02:36:18.563Z,0.00
2018-03-24T02:37:18.583Z,0.00
2018-03-24T02:38:18.608Z,0.00
2018-03-24T02:39:18.619Z,0.00
2018-03-24T02:40:18.642Z,0.00
2018-03-24T02:41:18.660Z,0.00
2018-03-24T02:42:18.688Z,0.00
2018-03-24T02:43:18.705Z,0.00
2018-03-24T02:44:18.726Z,0.00
2018-03-24T02:45:18.742Z,0.00
2018-03-24T02:46:18.769Z,0.00
2018-03-24T02:47:18.794Z,0.00
2018-03-24T02:48:18.805Z,0.00
2018-03-24T02:49:18.825Z,0.00
2018-03-24T02:50:18.852Z,0.00
2018-03-24T02:51:18.864Z,0.00
2018-03-24T02:52:18.886Z,0.00
2018-03-24T02:53:18.919Z,0.00
2018-03-24T02:54:18.925Z,0.00
2018-03-24T02:55:18.945Z,0.00
2018-03-24T02:56:18.970Z,0.00
2018-03-24T02:57:18.983Z,0.00
2018-03-24T02:58:19.013Z,0.00
2018-03-24T02:59:19.024Z,0.00
2018-03-24T03:00:19.051Z,0.00
2018-03-24T03:01:19.067Z,0.00
2018-03-24T03:02:19.088Z,0.00
2018-03-24T03:03:19.108Z,0.00
2018-03-24T03:04:19.132Z,0.00
2018-03-24T03:05:19.146Z,0.00
2018-03-24T03:06:19.170Z,0.00
2018-03-24T03:07:19.201Z,0.00
2018-03-24T03:08:19.207Z,0.00
2018-03-24T03:09:19.233Z,0.00
2018-03-24T03:10:19.247Z,0.00
2018-03-24T03:11:19.267Z,0.00
2018-03-24T03:12:19.286Z,0.00
2018-03-24T03:13:19.308Z,0.00
2018-03-24T03:14:19.332Z,0.00
2018-03-24T03:15:19.347Z,0.00
2018-03-24T03:16:19.366Z,0.00
2018-03-24T03:17:19.387Z,0.00
2018-03-24T03:18:19.407Z,0.00
2018-03-24T03:19:19.432Z,0.00
2018-03-24T03:20:19.446Z,0.00
2018-03-24T03:21:19.467Z,0.00
2018-03-24T03:22:19.488Z,0.00
2018-03-24T03:23:19.508Z,0.00
2018-03-24T03:24:19.528Z,0.00
2018-03-24T03:25:19.547Z,0.00
2018-03-24T03:26:19.566Z,0.00
2018-03-24T03:27:19.591Z,0.00
2018-03-24T03:28:19.609Z,0.00
2018-03-24T03:29:19.630Z,0.00
2018-03-24T03:30:19.651Z,0.00
2018-03-24T03:31:19.668Z,0.00
2018-03-24T03:32:19.690Z,0.00
2018-03-24T03:33:19.706Z,0.00
2018-03-24T03:34:19.735Z,0.00
2018-03-24T03:35:19.748Z,0.00
2018-03-24T03:36:19.766Z,0.00
2018-03-24T03:37:19.790Z,0.00
2018-03-24T03:38:19.815Z,0.00
2018-03-24T03:39:19.826Z,0.00
2018-03-24T03:40:19.846Z,0.00
2018-03-24T03:41:19.870Z,0.00
2018-03-24T03:42:19.895Z,0.00
2018-03-24T03:43:19.906Z,0.00
2018-03-24T03:44:19.927Z,0.00
2018-03-24T03:45:19.953Z,0.00
2018-03-24T03:46:19.967Z,0.00
2018-03-24T03:47:19.989Z,0.00
2018-03-24T03:48:20.010Z,0.00
2018-03-24T03:49:20.026Z,0.00
2018-03-24T03:50:20.045Z,0.00
2018-03-24T03:51:20.068Z,0.00
2018-03-24T03:52:20.086Z,0.00
2018-03-24T03:53:20.110Z,0.00
2018-03-24T03:54:20.131Z,0.00
2018-03-24T03:55:20.145Z,0.00
2018-03-24T03:56:20.170Z,0.00
2018-03-24T03:57:20.192Z,0.00
2018-03-24T03:58:20.212Z,0.00
2018-03-24T03:59:20.230Z,0.00
2018-03-24T04:00:20.250Z,0.00
2018-03-24T04:01:20.269Z,0.00
2018-03-24T04:02:20.287Z,0.00
2018-03-24T04:03:20.309Z,0.00
2018-03-24T04:04:20.330Z,0.00
2018-03-24T04:05:20.346Z,0.00
2018-03-24T04:06:20.369Z,0.00
2018-03-24T04:07:20.412Z,0.00
2018-03-24T04:08:20.413Z,0.00
2018-03-24T04:09:20.431Z,0.00
2018-03-24T04:10:20.449Z,0.00
2018-03-24T04:11:20.470Z,0.00
2018-03-24T04:12:20.489Z,0.00
2018-03-24T04:13:20.508Z,0.00
2018-03-24T04:14:20.534Z,0.00
2018-03-24T04:15:20.552Z,0.00
2018-03-24T04:16:20.569Z,0.00
2018-03-24T04:17:20.590Z,0.00
2018-03-24T04:18:20.608Z,0.00
2018-03-24T04:19:20.630Z,0.00
2018-03-24T04:20:20.648Z,0.00
2018-03-24T04:21:20.668Z,0.00
2018-03-24T04:22:20.688Z,0.00
2018-03-24T04:23:20.709Z,0.00
2018-03-24T04:24:20.732Z,0.00
2018-03-24T04:25:20.748Z,0.00
2018-03-24T04:26:20.767Z,0.00
2018-03-24T04:27:20.788Z,0.00
2018-03-24T04:28:20.808Z,0.00
2018-03-24T04:29:20.827Z,0.00
2018-03-24T04:30:20.848Z,0.00
2018-03-24T04:31:20.873Z,0.00
2018-03-24T04:32:20.890Z,0.00
2018-03-24T04:33:20.907Z,0.00
2018-03-24T04:34:20.927Z,0.00
2018-03-24T04:35:20.955Z,0.00
2018-03-24T04:36:20.971Z,0.00
2018-03-24T04:37:20.988Z,0.00
2018-03-24T04:38:21.010Z,0.00
2018-03-24T04:39:21.040Z,0.00
2018-03-24T04:40:21.047Z,0.00
2018-03-24T04:41:21.070Z,0.00
2018-03-24T04:42:21.092Z,0.00
2018-03-24T04:43:21.109Z,0.00
2018-03-24T04:44:21.125Z,0.00
2018-03-24T04:45:21.148Z,0.00
2018-03-24T04:46:21.168Z,0.00
2018-03-24T04:47:21.194Z,0.00
2018-03-24T04:48:21.207Z,0.00
2018-03-24T04:49:21.228Z,0.00
2018-03-24T04:50:21.247Z,0.00
2018-03-24T04:51:21.269Z,0.00
2018-03-24T04:52:21.287Z,0.00
2018-03-24T04:53:21.308Z,0.00
2018-03-24T04:54:21.339Z,0.00
2018-03-24T04:55:21.349Z,0.00
2018-03-24T04:56:21.366Z,0.00
2018-03-24T04:57:21.386Z,0.00
2018-03-24T04:58:21.409Z,0.00
2018-03-24T04:59:21.426Z,0.00
2018-03-24T05:00:21.446Z,0.00
2018-03-24T05:01:21.467Z,0.00
2018-03-24T05:02:21.486Z,0.00
2018-03-24T05:03:21.513Z,0.00
2018-03-24T05:04:21.531Z,0.00
2018-03-24T05:05:21.545Z,0.00
2018-03-24T05:06:21.571Z,0.00
2018-03-24T05:07:21.585Z,0.00
2018-03-24T05:08:21.611Z,0.00
2018-03-24T05:09:21.634Z,0.00
2018-03-24T05:10:21.646Z,0.00
2018-03-24T05:11:21.666Z,0.00
2018-03-24T05:12:21.687Z,0.00
2018-03-24T05:13:21.712Z,0.00
2018-03-24T05:14:21.725Z,0.00
2018-03-24T05:15:21.745Z,0.00
2018-03-24T05:16:21.765Z,0.00
2018-03-24T05:17:21.782Z,5.63
2018-03-24T05:18:21.810Z,5.63
2018-03-24T05:19:21.824Z,5.63
2018-03-24T05:20:21.845Z,5.63
2018-03-24T05:21:21.865Z,5.63
2018-03-24T05:22:21.890Z,5.63
2018-03-24T05:23:21.902Z,5.63
2018-03-24T05:24:21.926Z,5.63
2018-03-24T05:25:21.946Z,5.63
2018-03-24T05:26:21.963Z,11.25
2018-03-24T05:27:21.988Z,11.25
2018-03-24T05:28:22.003Z,11.25
2018-03-24T05:29:22.029Z,11.25
2018-03-24T05:30:22.046Z,11.25
2018-03-24T05:31:22.069Z,11.25
2018-03-24T05:32:22.084Z,11.25
2018-03-24T05:33:22.100Z,11.25
2018-03-24T05:34:22.119Z,11.25
2018-03-24T05:35:22.152Z,16.88
2018-03-24T05:36:22.168Z,16.88
2018-03-24T05:37:22.183Z,16.88
2018-03-24T05:38:22.205Z,16.88
2018-03-24T05:39:22.223Z,16.88
2018-03-24T05:40:22.243Z,16.88
2018-03-24T05:41:22.263Z,16.88
2018-03-24T05:42:22.287Z,16.88
2018-03-24T05:43:22.298Z,22.50
2018-03-24T05:44:22.323Z,22.50
2018-03-24T05:45:22.344Z,22.50
2018-03-24T05:46:22.364Z,22.50
2018-03-24T05:47:22.379Z,22.50
2018-03-24T05:48:22.402Z,22.50
2018-03-24T05:49:22.423Z,22.50
2018-03-24T05:50:22.438Z,22.50
2018-03-24T05:51:22.460Z,28.13
2018-03-24T05:52:22.486Z,28.13
2018-03-24T05:53:22.499Z,28.13
2018-03-24T05:54:22.518Z,28.13
2018-03-24T05:55:22.543Z,28.13
2018-03-24T05:56:22.557Z,33.75
2018-03-24T05:57:22.584Z,33.75
2018-03-24T05:58:22.598Z,33.75
2018-03-24T05:59:22.619Z,33.75
2018-03-24T06:00:22.640Z,33.75
2018-03-24T06:01:22.668Z,39.38
2018-03-24T06:02:22.678Z,39.38
2018-03-24T06:03:22.699Z,39.38
2018-03-24T06:04:22.718Z,39.38
2018-03-24T06:05:22.747Z,45.00
2018-03-24T06:06:22.761Z,45.00
2018-03-24T06:07:22.786Z,45.00
2018-03-24T06:08:22.806Z,50.63
2018-03-24T06:09:22.816Z,50.63
2018-03-24T06:10:22.843Z,50.63
2018-03-24T06:11:22.857Z,56.25
2018-03-24T06:12:22.876Z,56.25
2018-03-24T06:13:22.900Z,56.25
2018-03-24T06:14:22.925Z,61.88
2018-03-24T06:15:22.939Z,61.88
2018-03-24T06:16:22.957Z,67.50
2018-03-24T06:17:22.979Z,67.50
2018-03-24T06:18:23.000Z,73.13
2018-03-24T06:19:23.016Z,73.13
2018-03-24T06:20:23.040Z,73.13
2018-03-24T06:21:23.055Z,73.13
2018-03-24T06:22:23.074Z,78.75
2018-03-24T06:23:23.100Z,78.75
2018-03-24T06:24:23.116Z,78.75
2018-03-24T06:25:23.142Z,78.75
2018-03-24T06:26:23.160Z,78.75
2018-03-24T06:27:23.176Z,78.75
2018-03-24T06:28:23.195Z,78.75
2018-03-24T06:29:23.223Z,78.75
2018-03-24T06:30:23.244Z,78.75
2018-03-24T06:31:23.263Z,84.38
2018-03-24T06:32:23.275Z,84.38
2018-03-24T06:33:23.301Z,84.38
2018-03-24T06:34:23.319Z,84.38
2018-03-24T06:35:23.341Z,90.00
2018-03-24T06:36:23.358Z,90.00
2018-03-24T06:37:23.390Z,90.00
2018-03-24T06:38:23.422Z,90.00
2018-03-24T06:39:23.423Z,90.00
2018-03-24T06:40:23.445Z,95.63
2018-03-24T06:41:23.462Z,95.63
2018-03-24T06:42:23.489Z,95.63
2018-03-24T06:43:23.499Z,101.25
2018-03-24T06:44:23.521Z,101.25
2018-03-24T06:45:23.543Z,106.88
2018-03-24T06:46:23.566Z,101.25
2018-03-24T06:47:23.585Z,101.25
2018-03-24T06:48:23.601Z,106.88
2018-03-24T06:49:23.620Z,106.88
2018-03-24T06:50:23.641Z,106.88
2018-03-24T06:51:23.662Z,112.50
2018-03-24T06:52:23.685Z,112.50
2018-03-24T06:53:23.700Z,112.50
2018-03-24T06:54:23.725Z,112.50
2018-03-24T06:55:23.750Z,112.50
2018-03-24T06:56:23.761Z,112.50
2018-03-24T06:57:23.790Z,112.50
2018-03-24T06:58:23.806Z,112.50
2018-03-24T06:59:23.820Z,118.13
2018-03-24T07:00:23.841Z,118.13
2018-03-24T07:01:23.860Z,123.75
2018-03-24T07:02:23.889Z,123.75
2018-03-24T07:03:23.904Z,123.75
2018-03-24T07:04:23.918Z,123.75
2018-03-24T07:05:23.945Z,123.75
2018-03-24T07:06:23.965Z,123.75
2018-03-24T07:07:23.983Z,123.75
2018-03-24T07:08:24.003Z,129.38
2018-03-24T07:09:24.032Z,129.38
2018-03-24T07:10:24.050Z,135.00
2018-03-24T07:11:24.059Z,135.00
2018-03-24T07:12:24.088Z,140.63
2018-03-24T07:13:24.108Z,140.63
2018-03-24T07:14:24.127Z,146.25
2018-03-24T07:15:24.142Z,151.88
2018-03-24T07:16:24.164Z,151.88
2018-03-24T07:17:24.184Z,157.50
2018-03-24T07:18:24.203Z,163.13
2018-03-24T07:19:24.228Z,168.75
2018-03-24T07:20:24.248Z,168.75
2018-03-24T07:21:24.267Z,174.38
2018-03-24T07:22:24.291Z,174.38
2018-03-24T07:23:24.307Z,180.00
2018-03-24T07:24:24.330Z,185.63
2018-03-24T07:25:24.348Z,196.88
2018-03-24T07:26:24.371Z,196.88
2018-03-24T07:27:24.387Z,202.50
2018-03-24T07:28:24.408Z,202.50
2018-03-24T07:29:24.431Z,202.50
2018-03-24T07:30:24.461Z,208.13
2018-03-24T07:31:24.468Z,208.13
2018-03-24T07:32:24.487Z,213.75
2018-03-24T07:33:24.507Z,213.75
2018-03-24T07:34:24.527Z,219.38
2018-03-24T07:35:24.550Z,219.38
2018-03-24T07:36:24.567Z,219.38
2018-03-24T07:37:24.591Z,230.63
2018-03-24T07:38:24.608Z,225.00
2018-03-24T07:39:24.627Z,225.00
2018-03-24T07:40:24.652Z,230.63
2018-03-24T07:41:24.676Z,230.63
2018-03-24T07:42:24.692Z,236.25
2018-03-24T07:43:24.714Z,236.25
2018-03-24T07:44:24.738Z,247.50
2018-03-24T07:45:24.757Z,241.88
2018-03-24T07:46:24.775Z,247.50
2018-03-24T07:47:24.796Z,253.13
2018-03-24T07:48:24.813Z,253.13
2018-03-24T07:49:24.840Z,258.75
2018-03-24T07:50:24.860Z,270.00
2018-03-24T07:51:24.877Z,264.38
2018-03-24T07:52:24.903Z,270.00
2018-03-24T07:53:24.916Z,270.00
2018-03-24T07:54:24.940Z,275.63
2018-03-24T07:55:24.956Z,275.63
2018-03-24T07:56:24.976Z,281.25
2018-03-24T07:57:25.107Z,286.88
2018-03-24T07:58:25.020Z,286.88
2018-03-24T07:59:25.042Z,298.13
2018-03-24T08:00:25.063Z,292.50
2018-03-24T08:01:25.084Z,292.50
2018-03-24T08:02:25.101Z,298.13
2018-03-24T08:03:25.142Z,298.13
2018-03-24T08:04:25.145Z,303.75
2018-03-24T08:05:25.160Z,303.75
2018-03-24T08:06:25.186Z,309.38
2018-03-24T08:07:25.210Z,315.00
2018-03-24T08:08:25.225Z,320.63
2018-03-24T08:09:25.245Z,320.63
2018-03-24T08:10:25.266Z,326.25
2018-03-24T08:11:25.292Z,331.88
2018-03-24T08:12:25.306Z,337.50
2018-03-24T08:13:25.334Z,343.13
2018-03-24T08:14:25.353Z,348.75
2018-03-24T08:15:25.369Z,354.38
2018-03-24T08:16:25.390Z,360.00
2018-03-24T08:17:25.410Z,360.00
2018-03-24T08:18:25.435Z,360.00
2018-03-24T08:19:25.457Z,360.00
2018-03-24T08:20:25.473Z,365.63
2018-03-24T08:21:25.495Z,365.63
2018-03-24T08:22:25.515Z,365.63
2018-03-24T08:23:25.539Z,371.25
2018-03-24T08:24:25.573Z,376.88
2018-03-24T08:25:25.582Z,382.50
2018-03-24T08:26:25.604Z,382.50
2018-03-24T08:27:25.628Z,388.13
2018-03-24T08:28:25.645Z,393.75
2018-03-24T08:29:25.668Z,399.38
2018-03-24T08:30:25.688Z,405.00
2018-03-24T08:31:25.710Z,405.00
2018-03-24T08:32:25.728Z,405.00
2018-03-24T08:33:25.757Z,410.63
2018-03-24T08:34:25.784Z,410.63
2018-03-24T08:35:25.797Z,410.63
2018-03-24T08:36:25.818Z,410.63
2018-03-24T08:37:25.837Z,416.25
2018-03-24T08:38:25.915Z,416.25
2018-03-24T08:39:25.872Z,416.25
2018-03-24T08:40:25.898Z,427.50
2018-03-24T08:41:25.920Z,427.50
2018-03-24T08:42:25.939Z,433.13
2018-03-24T08:43:25.959Z,433.13
2018-03-24T08:44:25.984Z,444.38
2018-03-24T08:45:26.004Z,450.00
2018-03-24T08:46:26.026Z,450.00
2018-03-24T08:47:26.053Z,455.63
2018-03-24T08:48:26.068Z,455.63
2018-03-24T08:49:26.087Z,455.63
2018-03-24T08:50:26.107Z,461.25
2018-03-24T08:51:26.135Z,450.00
2018-03-24T08:52:26.154Z,450.00
2018-03-24T08:53:26.174Z,455.63
2018-03-24T08:54:26.195Z,450.00
2018-03-24T08:55:26.226Z,450.00
2018-03-24T08:56:26.241Z,455.63
2018-03-24T08:57:26.260Z,461.25
2018-03-24T08:58:26.285Z,472.50
2018-03-24T08:59:26.307Z,466.88
2018-03-24T09:00:26.322Z,472.50
2018-03-24T09:01:26.351Z,472.50
2018-03-24T09:02:26.372Z,472.50
2018-03-24T09:03:26.444Z,472.50
2018-03-24T09:04:26.415Z,478.13
2018-03-24T09:05:26.433Z,478.13
2018-03-24T09:06:26.467Z,478.13
2018-03-24T09:07:26.482Z,489.38
2018-03-24T09:08:26.502Z,483.75
2018-03-24T09:09:26.521Z,483.75
2018-03-24T09:10:26.541Z,483.75
2018-03-24T09:11:26.564Z,489.38
2018-03-24T09:12:26.597Z,489.38
2018-03-24T09:13:26.613Z,495.00
2018-03-24T09:14:26.631Z,500.63
2018-03-24T09:15:26.655Z,506.25
2018-03-24T09:16:26.674Z,511.88
2018-03-24T09:17:26.700Z,511.88
2018-03-24T09:18:26.721Z,511.88
2018-03-24T09:19:26.745Z,511.88
2018-03-24T09:20:26.769Z,517.50
2018-03-24T09:21:26.788Z,517.50
2018-03-24T09:22:26.806Z,517.50
2018-03-24T09:23:26.844Z,517.50
2018-03-24T09:24:26.861Z,523.13
2018-03-24T09:25:26.878Z,523.13
2018-03-24T09:26:26.901Z,528.75
2018-03-24T09:27:26.919Z,534.38
2018-03-24T09:28:26.941Z,540.00
2018-03-24T09:29:26.960Z,545.63
2018-03-24T09:30:26.982Z,545.63
2018-03-24T09:31:27.014Z,545.63
2018-03-24T09:32:27.029Z,551.25
2018-03-24T09:33:27.050Z,551.25
2018-03-24T09:34:27.069Z,556.88
2018-03-24T09:35:27.091Z,562.50
2018-03-24T09:36:27.116Z,573.75
2018-03-24T09:37:27.155Z,579.38
2018-03-24T09:38:27.161Z,585.00
2018-03-24T09:39:27.183Z,590.63
2018-03-24T09:40:27.224Z,601.88
2018-03-24T09:41:27.226Z,607.50
2018-03-24T09:42:27.250Z,601.88
2018-03-24T09:43:27.274Z,607.50
2018-03-24T09:44:27.291Z,607.50
2018-03-24T09:45:27.317Z,613.13
2018-03-24T09:46:27.340Z,613.13
2018-03-24T09:47:27.377Z,613.13
2018-03-24T09:48:27.380Z,618.75
2018-03-24T09:49:27.408Z,630.00
2018-03-24T09:50:27.430Z,630.00
2018-03-24T09:51:27.451Z,635.63
2018-03-24T09:52:27.474Z,646.88
2018-03-24T09:53:27.495Z,652.50
2018-03-24T09:54:27.537Z,658.13
2018-03-24T09:55:27.540Z,663.75
2018-03-24T09:56:27.562Z,675.00
2018-03-24T09:57:27.595Z,686.25
2018-03-24T09:58:27.613Z,697.50
2018-03-24T09:59:27.630Z,708.75
2018-03-24T10:00:27.654Z,720.00
2018-03-24T10:01:27.675Z,736.88
2018-03-24T10:02:27.699Z,748.13
2018-03-24T10:03:27.733Z,753.75
2018-03-24T10:04:27.759Z,753.75
2018-03-24T10:05:27.769Z,753.75
2018-03-24T10:06:27.799Z,753.75
2018-03-24T10:07:27.818Z,753.75
2018-03-24T10:08:27.849Z,742.50
2018-03-24T10:09:27.859Z,742.50
2018-03-24T10:10:27.888Z,748.13
2018-03-24T10:11:27.904Z,742.50
2018-03-24T10:12:27.931Z,748.13
2018-03-24T10:13:27.959Z,753.75
2018-03-24T10:14:27.978Z,759.38
2018-03-24T10:15:28.004Z,759.38
2018-03-24T10:16:28.023Z,770.63
2018-03-24T10:17:28.048Z,765.00
2018-03-24T10:18:28.077Z,765.00
2018-03-24T10:19:28.111Z,753.75
2018-03-24T10:20:28.118Z,748.13
2018-03-24T10:21:28.138Z,742.50
2018-03-24T10:22:28.210Z,742.50
2018-03-24T10:23:28.193Z,736.88
2018-03-24T10:24:28.213Z,742.50
2018-03-24T10:25:28.236Z,753.75
2018-03-24T10:26:28.265Z,753.75
2018-03-24T10:27:28.288Z,759.38
2018-03-24T10:28:28.314Z,759.38
2018-03-24T10:29:28.335Z,753.75
2018-03-24T10:30:28.354Z,748.13
2018-03-24T10:31:28.380Z,748.13
2018-03-24T10:32:28.404Z,742.50
2018-03-24T10:33:28.425Z,742.50
2018-03-24T10:34:28.448Z,748.13
2018-03-24T10:35:28.503Z,753.75
2018-03-24T10:36:28.495Z,759.38
2018-03-24T10:37:28.519Z,765.00
2018-03-24T10:38:28.544Z,770.63
2018-03-24T10:39:28.568Z,770.63
2018-03-24T10:40:28.588Z,781.88
2018-03-24T10:41:28.625Z,793.13
2018-03-24T10:42:28.640Z,793.13
2018-03-24T10:43:28.658Z,793.13
2018-03-24T10:44:28.689Z,793.13
2018-03-24T10:45:28.707Z,793.13
2018-03-24T10:46:28.735Z,793.13
2018-03-24T10:47:28.751Z,798.75
2018-03-24T10:48:28.776Z,793.13
2018-03-24T10:49:28.804Z,793.13
2018-03-24T10:50:28.831Z,793.13
2018-03-24T10:51:28.854Z,798.75
2018-03-24T10:52:28.895Z,793.13
2018-03-24T10:53:28.904Z,787.50
2018-03-24T10:54:28.921Z,787.50
2018-03-24T10:55:28.947Z,781.88
2018-03-24T10:56:28.972Z,781.88
2018-03-24T10:57:28.996Z,770.63
2018-03-24T10:58:29.024Z,759.38
2018-03-24T10:59:29.053Z,759.38
2018-03-24T11:00:29.070Z,753.75
2018-03-24T11:01:29.095Z,759.38
2018-03-24T11:02:29.115Z,765.00
2018-03-24T11:03:29.146Z,776.25
2018-03-24T11:04:29.170Z,793.13
2018-03-24T11:05:29.190Z,798.75
2018-03-24T11:06:29.210Z,798.75
2018-03-24T11:07:29.236Z,810.00
2018-03-24T11:08:29.265Z,804.38
2018-03-24T11:09:29.290Z,804.38
2018-03-24T11:10:29.311Z,804.38
2018-03-24T11:11:29.343Z,793.13
2018-03-24T11:12:29.360Z,793.13
2018-03-24T11:13:29.383Z,793.13
2018-03-24T11:14:29.410Z,787.50
2018-03-24T11:15:29.437Z,798.75
2018-03-24T11:16:29.466Z,793.13
2018-03-24T11:17:29.483Z,793.13
2018-03-24T11:18:29.513Z,787.50
2018-03-24T11:19:29.535Z,787.50
2018-03-24T11:20:29.555Z,781.88
2018-03-24T11:21:29.576Z,770.63
2018-03-24T11:22:29.605Z,759.38
2018-03-24T11:23:29.626Z,753.75
2018-03-24T11:24:29.661Z,748.13
2018-03-24T11:25:29.675Z,753.75
2018-03-24T11:26:29.717Z,742.50
2018-03-24T11:27:29.728Z,742.50
2018-03-24T11:28:29.758Z,736.88
2018-03-24T11:29:29.774Z,736.88
2018-03-24T11:30:29.798Z,731.25
2018-03-24T11:31:29.820Z,720.00
2018-03-24T11:32:29.844Z,720.00
2018-03-24T11:33:29.868Z,720.00
2018-03-24T11:34:29.894Z,720.00
2018-03-24T11:35:29.919Z,714.38
2018-03-24T11:36:29.953Z,714.38
2018-03-24T11:37:29.964Z,714.38
2018-03-24T11:38:29.989Z,708.75
2018-03-24T11:39:30.018Z,708.75
2018-03-24T11:40:30.038Z,708.75
2018-03-24T11:41:30.077Z,708.75
2018-03-24T11:42:30.092Z,708.75
2018-03-24T11:43:30.125Z,708.75
2018-03-24T11:44:30.141Z,714.38
2018-03-24T11:45:30.163Z,714.38
2018-03-24T11:46:30.187Z,720.00
2018-03-24T11:47:30.207Z,731.25
2018-03-24T11:48:30.238Z,748.13
2018-03-24T11:49:30.263Z,765.00
2018-03-24T11:50:30.287Z,781.88
2018-03-24T11:51:30.303Z,798.75
2018-03-24T11:52:30.335Z,810.00
2018-03-24T11:53:30.354Z,838.13
2018-03-24T11:54:30.378Z,866.25
2018-03-24T11:55:30.414Z,894.38
2018-03-24T11:56:30.426Z,905.63
2018-03-24T11:57:30.455Z,922.50
2018-03-24T11:58:30.477Z,922.50
2018-03-24T11:59:30.499Z,939.38
2018-03-24T12:00:30.523Z,939.38
2018-03-24T12:01:30.556Z,945.00
2018-03-24T12:02:30.572Z,950.63
2018-03-24T12:03:30.599Z,950.63
2018-03-24T12:04:30.622Z,950.63
2018-03-24T12:05:30.650Z,950.63
2018-03-24T12:06:30.674Z,961.88
2018-03-24T12:07:30.708Z,967.50
2018-03-24T12:08:30.724Z,973.13
2018-03-24T12:09:30.743Z,984.38
2018-03-24T12:10:30.772Z,995.63
2018-03-24T12:11:30.794Z,995.63
2018-03-24T12:12:30.823Z,995.63
2018-03-24T12:13:30.842Z,995.63
2018-03-24T12:14:30.868Z,995.63
2018-03-24T12:15:30.896Z,1001.25
2018-03-24T12:16:30.919Z,1006.88
2018-03-24T12:17:30.948Z,1023.75
2018-03-24T12:18:30.973Z,1040.63
2018-03-24T12:19:30.996Z,1040.63
2018-03-24T12:20:31.028Z,1029.38
2018-03-24T12:21:31.051Z,1006.88
2018-03-24T12:22:31.074Z,990.00
2018-03-24T12:23:31.097Z,978.75
2018-03-24T12:24:31.121Z,961.88
2018-03-24T12:25:31.150Z,961.88
2018-03-24T12:26:31.175Z,978.75
2018-03-24T12:27:31.198Z,973.13
2018-03-24T12:28:31.223Z,967.50
2018-03-24T12:29:31.249Z,956.25
2018-03-24T12:30:31.276Z,939.38
2018-03-24T12:31:31.306Z,922.50
2018-03-24T12:32:31.326Z,894.38
2018-03-24T12:33:31.350Z,883.13
2018-03-24T12:34:31.375Z,866.25
2018-03-24T12:35:31.406Z,860.63
2018-03-24T12:36:31.425Z,855.00
2018-03-24T12:37:31.451Z,855.00
2018-03-24T12:38:31.484Z,860.63
2018-03-24T12:39:31.507Z,866.25
2018-03-24T12:40:31.535Z,871.88
2018-03-24T12:41:31.557Z,877.50
2018-03-24T12:42:31.581Z,883.13
2018-03-24T12:43:31.605Z,877.50
2018-03-24T12:44:31.631Z,877.50
2018-03-24T12:45:31.654Z,883.13
2018-03-24T12:46:31.688Z,888.75
2018-03-24T12:47:31.709Z,894.38
2018-03-24T12:48:31.743Z,900.00
2018-03-24T12:49:31.760Z,905.63
2018-03-24T12:50:31.785Z,911.25
2018-03-24T12:51:31.820Z,911.25